createdAt,value
2018-05-29T00:00:06.962Z,17.49
2018-05-29T00:01:06.956Z,17.51
2018-05-29T00:02:06.948Z,17.55
2018-05-29T00:03:06.939Z,17.52
2018-05-29T00:04:06.932Z,17.46
2018-05-29T00:05:06.917Z,17.51
2018-05-29T00:06:06.911Z,17.44
2018-05-29T00:07:06.909Z,17.43
2018-05-29T00:08:06.899Z,17.44
2018-05-29T00:09:06.891Z,17.52
2018-05-29T00:10:06.880Z,17.43
2018-05-29T00:11:06.874Z,17.44
2018-05-29T00:12:06.860Z,17.51
2018-05-29T00:13:06.856Z,17.52
2018-05-29T00:14:06.846Z,17.46
2018-05-29T00:15:06.838Z,17.54
2018-05-29T00:16:06.838Z,17.43
2018-05-29T00:17:06.826Z,17.52
2018-05-29T00:18:06.815Z,17.55
2018-05-29T00:19:06.805Z,17.52
2018-05-29T00:20:06.798Z,17.48
2018-05-29T00:21:06.789Z,17.51
2018-05-29T00:22:06.779Z,17.46
2018-05-29T00:23:06.771Z,17.46
2018-05-29T00:24:06.763Z,17.58
2018-05-29T00:25:06.755Z,17.44
2018-05-29T00:26:06.746Z,17.46
2018-05-29T00:27:06.740Z,17.55
2018-05-29T00:28:06.732Z,17.52
2018-05-29T00:29:06.724Z,17.40
2018-05-29T00:30:06.716Z,17.41
2018-05-29T00:31:06.705Z,17.46
2018-05-29T00:32:06.703Z,17.49
2018-05-29T00:33:06.688Z,17.44
2018-05-29T00:34:06.680Z,17.49
2018-05-29T00:35:06.674Z,17.49
2018-05-29T00:36:06.664Z,17.44
2018-05-29T00:37:06.654Z,17.54
2018-05-29T00:38:06.648Z,17.44
2018-05-29T00:39:06.642Z,17.44
2018-05-29T00:40:06.628Z,17.52
2018-05-29T00:41:06.625Z,17.49
2018-05-29T00:42:06.611Z,17.43
2018-05-29T00:43:06.601Z,17.49
2018-05-29T00:44:06.600Z,17.38
2018-05-29T00:45:06.590Z,17.48
2018-05-29T00:46:06.590Z,17.49
2018-05-29T00:47:06.577Z,17.46
2018-05-29T00:48:06.581Z,17.51
2018-05-29T00:49:06.561Z,17.44
2018-05-29T00:50:06.553Z,17.46
2018-05-29T00:51:06.540Z,17.40
2018-05-29T00:52:06.532Z,17.51
2018-05-29T00:53:06.527Z,17.46
2018-05-29T00:54:06.518Z,17.46
2018-05-29T00:55:06.504Z,17.46
2018-05-29T00:56:06.499Z,17.43
2018-05-29T00:57:06.488Z,17.51
2018-05-29T00:58:06.487Z,17.52
2018-05-29T00:59:06.480Z,17.44
2018-05-29T01:00:06.471Z,17.51
2018-05-29T01:01:06.461Z,17.49
2018-05-29T01:02:06.453Z,17.55
2018-05-29T01:03:06.440Z,17.52
2018-05-29T01:04:06.440Z,17.52
2018-05-29T01:05:06.424Z,17.62
2018-05-29T01:06:06.420Z,17.52
2018-05-29T01:07:06.436Z,17.51
2018-05-29T01:08:06.403Z,17.54
2018-05-29T01:09:06.395Z,17.52
2018-05-29T01:10:06.391Z,17.55
2018-05-29T01:11:06.377Z,17.54
2018-05-29T01:12:06.367Z,17.54
2018-05-29T01:13:06.361Z,17.62
2018-05-29T01:14:06.347Z,17.51
2018-05-29T01:15:06.340Z,17.56
2018-05-29T01:16:06.335Z,17.56
2018-05-29T01:17:06.325Z,17.66
2018-05-29T01:18:06.322Z,17.63
2018-05-29T01:19:06.312Z,17.58
2018-05-29T01:20:06.302Z,17.56
2018-05-29T01:21:06.294Z,17.62
2018-05-29T01:22:06.280Z,17.58
2018-05-29T01:23:06.275Z,17.52
2018-05-29T01:24:06.268Z,17.52
2018-05-29T01:25:06.255Z,17.55
2018-05-29T01:26:06.256Z,17.43
2018-05-29T01:27:06.248Z,17.43
2018-05-29T01:28:06.239Z,17.51
2018-05-29T01:29:06.229Z,17.44
2018-05-29T01:30:06.218Z,17.49
2018-05-29T01:31:06.208Z,17.54
2018-05-29T01:32:06.205Z,17.44
2018-05-29T01:33:06.198Z,17.52
2018-05-29T01:34:06.187Z,17.49
2018-05-29T01:35:06.180Z,17.51
2018-05-29T01:36:06.168Z,17.43
2018-05-29T01:37:06.166Z,17.46
2018-05-29T01:38:06.150Z,17.46
2018-05-29T01:39:06.149Z,17.51
2018-05-29T01:40:06.137Z,17.51
2018-05-29T01:41:06.129Z,17.43
2018-05-29T01:42:06.117Z,17.51
2018-05-29T01:43:06.110Z,17.52
2018-05-29T01:44:06.110Z,17.44
2018-05-29T01:45:06.102Z,17.51
2018-05-29T01:46:06.086Z,17.49
2018-05-29T01:47:06.083Z,17.44
2018-05-29T01:48:06.071Z,17.46
2018-05-29T01:49:06.063Z,17.46
2018-05-29T01:50:06.054Z,17.48
2018-05-29T01:51:06.047Z,17.46
2018-05-29T01:52:06.039Z,17.43
2018-05-29T01:53:06.026Z,17.52
2018-05-29T01:54:06.028Z,17.58
2018-05-29T01:55:06.010Z,17.62
2018-05-29T01:56:06.003Z,17.52
2018-05-29T01:57:05.997Z,17.54
2018-05-29T01:58:05.987Z,17.59
2018-05-29T01:59:05.982Z,17.51
2018-05-29T02:00:05.972Z,17.52
2018-05-29T02:01:05.964Z,17.63
2018-05-29T02:02:05.957Z,17.54
2018-05-29T02:03:05.951Z,17.62
2018-05-29T02:04:05.941Z,17.62
2018-05-29T02:05:05.928Z,17.64
2018-05-29T02:06:05.922Z,17.58
2018-05-29T02:07:05.922Z,17.63
2018-05-29T02:08:05.913Z,17.63
2018-05-29T02:09:05.897Z,17.56
2018-05-29T02:10:05.888Z,17.63
2018-05-29T02:11:05.878Z,17.66
2018-05-29T02:12:05.873Z,17.68
2018-05-29T02:13:05.865Z,17.68
2018-05-29T02:14:05.857Z,17.63
2018-05-29T02:15:05.849Z,17.68
2018-05-29T02:16:05.840Z,17.58
2018-05-29T02:17:05.832Z,17.55
2018-05-29T02:18:05.820Z,17.64
2018-05-29T02:19:05.813Z,17.63
2018-05-29T02:20:05.804Z,17.62
2018-05-29T02:21:05.797Z,17.51
2018-05-29T02:22:05.793Z,17.52
2018-05-29T02:23:05.783Z,17.49
2018-05-29T02:24:05.778Z,17.54
2018-05-29T02:25:05.759Z,17.58
2018-05-29T02:26:05.755Z,17.48
2018-05-29T02:27:05.752Z,17.54
2018-05-29T02:28:05.740Z,17.55
2018-05-29T02:29:05.736Z,17.52
2018-05-29T02:30:05.723Z,17.56
2018-05-29T02:31:05.719Z,17.52
2018-05-29T02:32:05.709Z,17.51
2018-05-29T02:33:05.696Z,17.51
2018-05-29T02:34:05.690Z,17.48
2018-05-29T02:35:05.683Z,17.48
2018-05-29T02:36:05.676Z,17.54
2018-05-29T02:37:05.663Z,17.44
2018-05-29T02:38:05.659Z,17.54
2018-05-29T02:39:05.651Z,17.52
2018-05-29T02:40:05.642Z,17.49
2018-05-29T02:41:05.629Z,17.48
2018-05-29T02:42:05.626Z,17.49
2018-05-29T02:43:05.615Z,17.49
2018-05-29T02:44:05.608Z,17.54
2018-05-29T02:45:05.609Z,17.52
2018-05-29T02:46:05.600Z,17.41
2018-05-29T02:47:05.585Z,17.34
2018-05-29T02:48:05.574Z,17.36
2018-05-29T02:49:05.571Z,17.41
2018-05-29T02:50:05.554Z,17.37
2018-05-29T02:51:05.547Z,17.40
2018-05-29T02:52:05.542Z,17.43
2018-05-29T02:53:05.529Z,17.37
2018-05-29T02:54:05.531Z,17.40
2018-05-29T02:55:05.515Z,17.41
2018-05-29T02:56:05.508Z,17.49
2018-05-29T02:57:05.505Z,17.41
2018-05-29T02:58:05.495Z,17.40
2018-05-29T02:59:05.480Z,17.36
2018-05-29T03:00:05.474Z,17.43
2018-05-29T03:01:05.469Z,17.37
2018-05-29T03:02:05.460Z,17.28
2018-05-29T03:03:05.452Z,17.28
2018-05-29T03:04:05.445Z,17.31
2018-05-29T03:05:05.428Z,17.23
2018-05-29T03:06:05.424Z,17.28
2018-05-29T03:07:05.421Z,17.26
2018-05-29T03:08:05.424Z,17.23
2018-05-29T03:09:05.401Z,17.28
2018-05-29T03:10:05.400Z,17.19
2018-05-29T03:11:05.385Z,17.23
2018-05-29T03:12:05.375Z,17.22
2018-05-29T03:13:05.363Z,17.23
2018-05-29T03:14:05.355Z,17.15
2018-05-29T03:15:05.348Z,17.12
2018-05-29T03:16:05.340Z,17.15
2018-05-29T03:17:05.333Z,17.12
2018-05-29T03:18:05.324Z,17.06
2018-05-29T03:19:05.316Z,17.06
2018-05-29T03:20:05.314Z,17.08
2018-05-29T03:21:05.303Z,17.08
2018-05-29T03:22:05.293Z,17.12
2018-05-29T03:23:05.283Z,17.06
2018-05-29T03:24:05.281Z,17.08
2018-05-29T03:25:05.265Z,17.12
2018-05-29T03:26:05.253Z,17.06
2018-05-29T03:27:05.247Z,17.06
2018-05-29T03:28:05.240Z,17.07
2018-05-29T03:29:05.232Z,17.08
2018-05-29T03:30:05.226Z,17.07
2018-05-29T03:31:05.225Z,17.04
2018-05-29T03:32:05.210Z,17.06
2018-05-29T03:33:05.200Z,17.06
2018-05-29T03:34:05.193Z,17.01
2018-05-29T03:35:05.181Z,17.06
2018-05-29T03:36:05.206Z,17.07
2018-05-29T03:37:05.171Z,16.96
2018-05-29T03:38:05.162Z,17.01
2018-05-29T03:39:05.150Z,16.97
2018-05-29T03:40:05.137Z,16.97
2018-05-29T03:41:05.125Z,17.03
2018-05-29T03:42:05.123Z,16.93
2018-05-29T03:43:05.113Z,16.94
2018-05-29T03:44:05.125Z,16.98
2018-05-29T03:45:05.101Z,16.96
2018-05-29T03:46:05.087Z,16.93
2018-05-29T03:47:05.081Z,16.94
2018-05-29T03:48:05.069Z,16.88
2018-05-29T03:49:05.068Z,16.94
2018-05-29T03:50:05.049Z,16.97
2018-05-29T03:51:05.047Z,17.06
2018-05-29T03:52:05.039Z,16.94
2018-05-29T03:53:05.027Z,16.98
2018-05-29T03:54:05.027Z,16.97
2018-05-29T03:55:05.012Z,16.93
2018-05-29T03:56:05.006Z,16.98
2018-05-29T03:57:04.992Z,16.97
2018-05-29T03:58:04.994Z,17.04
2018-05-29T03:59:04.976Z,16.98
2018-05-29T04:00:04.972Z,17.03
2018-05-29T04:01:04.960Z,17.00
2018-05-29T04:02:04.956Z,16.94
2018-05-29T04:03:04.941Z,17.00
2018-05-29T04:04:04.929Z,17.03
2018-05-29T04:05:04.925Z,17.07
2018-05-29T04:06:04.915Z,17.07
2018-05-29T04:07:04.905Z,16.97
2018-05-29T04:08:04.903Z,17.06
2018-05-29T04:09:04.891Z,17.04
2018-05-29T04:10:04.884Z,17.01
2018-05-29T04:11:04.874Z,17.01
2018-05-29T04:12:04.862Z,17.01
2018-05-29T04:13:04.851Z,17.00
2018-05-29T04:14:04.850Z,17.04
2018-05-29T04:15:04.835Z,17.03
2018-05-29T04:16:04.826Z,17.03
2018-05-29T04:17:04.847Z,17.00
2018-05-29T04:18:04.811Z,17.03
2018-05-29T04:19:04.801Z,17.03
2018-05-29T04:20:07.330Z,16.97
2018-05-29T04:21:04.786Z,16.93
2018-05-29T04:22:04.776Z,16.91
2018-05-29T04:23:04.768Z,16.98
2018-05-29T04:24:04.760Z,16.98
2018-05-29T04:25:04.751Z,16.93
2018-05-29T04:26:04.736Z,16.97
2018-05-29T04:27:04.736Z,16.93
2018-05-29T04:28:04.729Z,16.89
2018-05-29T04:29:04.720Z,16.94
2018-05-29T04:30:04.703Z,16.96
2018-05-29T04:31:04.694Z,16.94
2018-05-29T04:32:04.689Z,17.01
2018-05-29T04:33:04.678Z,16.93
2018-05-29T04:34:04.672Z,16.88
2018-05-29T04:35:04.666Z,16.98
2018-05-29T04:36:04.651Z,16.96
2018-05-29T04:37:04.640Z,16.98
2018-05-29T04:38:04.632Z,16.93
2018-05-29T04:39:04.624Z,16.97
2018-05-29T04:40:04.614Z,16.94
2018-05-29T04:41:04.603Z,16.96
2018-05-29T04:42:04.606Z,16.91
2018-05-29T04:43:04.589Z,16.96
2018-05-29T04:44:04.581Z,16.91
2018-05-29T04:45:04.572Z,16.91
2018-05-29T04:46:04.559Z,17.00
2018-05-29T04:47:04.600Z,16.93
2018-05-29T04:48:04.544Z,16.98
2018-05-29T04:49:04.536Z,16.96
2018-05-29T04:50:04.528Z,16.97
2018-05-29T04:51:04.515Z,16.94
2018-05-29T04:52:04.507Z,16.96
2018-05-29T04:53:04.499Z,16.98
2018-05-29T04:54:04.493Z,16.96
2018-05-29T04:55:04.486Z,16.94
2018-05-29T04:56:04.473Z,16.97
2018-05-29T04:57:04.467Z,17.00
2018-05-29T04:58:04.457Z,17.00
2018-05-29T04:59:04.448Z,17.01
2018-05-29T05:00:04.436Z,17.01
2018-05-29T05:01:04.427Z,17.07
2018-05-29T05:02:04.427Z,17.07
2018-05-29T05:03:04.419Z,17.11
2018-05-29T05:04:04.404Z,17.18
2018-05-29T05:05:04.392Z,17.12
2018-05-29T05:06:04.378Z,17.11
2018-05-29T05:07:04.379Z,17.18
2018-05-29T05:08:04.367Z,17.23
2018-05-29T05:09:04.359Z,17.22
2018-05-29T05:10:04.349Z,17.23
2018-05-29T05:11:04.339Z,17.21
2018-05-29T05:12:04.333Z,17.22
2018-05-29T05:13:04.321Z,17.25
2018-05-29T05:14:04.315Z,17.30
2018-05-29T05:15:04.302Z,17.28
2018-05-29T05:16:04.299Z,17.26
2018-05-29T05:17:04.290Z,17.16
2018-05-29T05:18:04.286Z,17.21
2018-05-29T05:19:04.269Z,17.21
2018-05-29T05:20:04.260Z,17.26
2018-05-29T05:21:04.249Z,17.16
2018-05-29T05:22:04.243Z,17.21
2018-05-29T05:23:04.236Z,17.25
2018-05-29T05:24:04.230Z,17.33
2018-05-29T05:25:04.220Z,17.19
2018-05-29T05:26:04.210Z,17.30
2018-05-29T05:27:04.203Z,17.34
2018-05-29T05:28:04.191Z,17.25
2018-05-29T05:29:04.184Z,17.23
2018-05-29T05:30:04.227Z,17.31
2018-05-29T05:31:04.163Z,17.28
2018-05-29T05:32:04.163Z,17.31
2018-05-29T05:33:04.147Z,17.34
2018-05-29T05:34:04.140Z,17.37
2018-05-29T05:35:04.129Z,17.30
2018-05-29T05:36:04.127Z,17.30
2018-05-29T05:37:04.114Z,17.40
2018-05-29T05:38:04.103Z,17.40
2018-05-29T05:39:04.097Z,17.34
2018-05-29T05:40:04.097Z,17.46
2018-05-29T05:41:04.082Z,17.44
2018-05-29T05:42:04.072Z,17.33
2018-05-29T05:43:04.062Z,17.43
2018-05-29T05:44:04.055Z,17.40
2018-05-29T05:45:04.048Z,17.44
2018-05-29T05:46:04.052Z,17.46
2018-05-29T05:47:04.026Z,17.36
2018-05-29T05:48:04.026Z,17.37
2018-05-29T05:49:04.009Z,17.38
2018-05-29T05:50:04.003Z,17.41
2018-05-29T05:51:03.995Z,17.40
2018-05-29T05:52:03.983Z,17.48
2018-05-29T05:53:03.977Z,17.43
2018-05-29T05:54:03.971Z,17.44
2018-05-29T05:55:03.956Z,17.51
2018-05-29T05:56:03.953Z,17.49
2018-05-29T05:57:03.950Z,17.49
2018-05-29T05:58:03.936Z,17.52
2018-05-29T05:59:03.928Z,17.52
2018-05-29T06:00:03.914Z,17.62
2018-05-29T06:01:03.913Z,17.63
2018-05-29T06:02:03.896Z,17.72
2018-05-29T06:03:03.895Z,17.72
2018-05-29T06:04:03.888Z,17.72
2018-05-29T06:05:03.876Z,17.77
2018-05-29T06:06:03.866Z,17.71
2018-05-29T06:07:03.857Z,17.71
2018-05-29T06:08:03.845Z,17.77
2018-05-29T06:09:03.837Z,17.79
2018-05-29T06:10:03.832Z,17.81
2018-05-29T06:11:03.821Z,17.86
2018-05-29T06:12:03.816Z,17.97
2018-05-29T06:13:03.806Z,18.03
2018-05-29T06:14:03.804Z,17.96
2018-05-29T06:15:03.786Z,18.05
2018-05-29T06:16:03.778Z,18.07
2018-05-29T06:17:03.776Z,18.11
2018-05-29T06:18:03.764Z,18.05
2018-05-29T06:19:03.755Z,18.12
2018-05-29T06:20:03.751Z,18.11
2018-05-29T06:21:03.735Z,18.12
2018-05-29T06:22:03.731Z,18.18
2018-05-29T06:23:03.718Z,18.29
2018-05-29T06:24:03.716Z,18.30
2018-05-29T06:25:03.708Z,18.55
2018-05-29T06:26:03.698Z,18.72
2018-05-29T06:27:03.697Z,18.81
2018-05-29T06:28:03.684Z,18.92
2018-05-29T06:29:03.671Z,18.91
2018-05-29T06:30:03.669Z,18.91
2018-05-29T06:31:03.658Z,18.88
2018-05-29T06:32:03.649Z,18.91
2018-05-29T06:33:03.644Z,18.90
2018-05-29T06:34:03.637Z,18.88
2018-05-29T06:35:03.628Z,18.91
2018-05-29T06:36:03.621Z,18.94
2018-05-29T06:37:03.612Z,19.13
2018-05-29T06:38:03.601Z,19.18
2018-05-29T06:39:03.597Z,19.26
2018-05-29T06:40:03.590Z,19.13
2018-05-29T06:41:03.593Z,19.11
2018-05-29T06:42:03.572Z,19.23
2018-05-29T06:43:03.563Z,19.25
2018-05-29T06:44:03.556Z,19.25
2018-05-29T06:45:03.627Z,19.31
2018-05-29T06:46:03.535Z,19.29
2018-05-29T06:47:03.533Z,19.37
2018-05-29T06:48:03.525Z,19.29
2018-05-29T06:49:03.522Z,19.32
2018-05-29T06:50:03.509Z,19.39
2018-05-29T06:51:03.500Z,19.44
2018-05-29T06:52:03.494Z,19.58
2018-05-29T06:53:03.487Z,19.73
2018-05-29T06:54:03.476Z,19.58
2018-05-29T06:55:03.474Z,19.56
2018-05-29T06:56:03.469Z,19.46
2018-05-29T06:57:03.459Z,19.55
2018-05-29T06:58:03.439Z,19.48
2018-05-29T06:59:03.446Z,19.54
2018-05-29T07:00:03.434Z,19.48
2018-05-29T07:01:03.424Z,19.47
2018-05-29T07:02:03.418Z,19.48
2018-05-29T07:03:03.414Z,19.36
2018-05-29T07:04:03.404Z,19.28
2018-05-29T07:05:03.402Z,19.22
2018-05-29T07:06:03.388Z,19.25
2018-05-29T07:07:03.436Z,19.04
2018-05-29T07:08:03.373Z,18.94
2018-05-29T07:09:03.365Z,18.90
2018-05-29T07:10:03.355Z,18.87
2018-05-29T07:11:03.350Z,18.88
2018-05-29T07:12:03.345Z,18.98
2018-05-29T07:13:03.337Z,19.02
2018-05-29T07:14:03.327Z,19.00
2018-05-29T07:15:03.318Z,19.13
2018-05-29T07:16:03.314Z,19.02
2018-05-29T07:17:03.307Z,19.06
2018-05-29T07:18:03.298Z,18.92
2018-05-29T07:19:03.288Z,19.00
2018-05-29T07:20:03.280Z,18.94
2018-05-29T07:21:03.274Z,19.00
2018-05-29T07:22:03.266Z,19.08
2018-05-29T07:23:03.260Z,19.13
2018-05-29T07:24:03.251Z,19.19
2018-05-29T07:25:03.245Z,19.14
2018-05-29T07:26:03.230Z,19.13
2018-05-29T07:27:03.226Z,19.14
2018-05-29T07:28:03.224Z,19.19
2018-05-29T07:29:03.216Z,19.14
2018-05-29T07:30:03.210Z,19.11
2018-05-29T07:31:03.197Z,19.13
2018-05-29T07:32:03.191Z,19.08
2018-05-29T07:33:03.183Z,19.00
2018-05-29T07:34:03.171Z,19.02
2018-05-29T07:35:03.169Z,19.00
2018-05-29T07:36:03.157Z,19.02
2018-05-29T07:37:03.147Z,18.92
2018-05-29T07:38:03.143Z,18.91
2018-05-29T07:39:03.137Z,18.92
2018-05-29T07:40:03.130Z,18.88
2018-05-29T07:41:03.132Z,18.99
2018-05-29T07:42:03.115Z,18.99
2018-05-29T07:43:03.110Z,18.92
2018-05-29T07:44:03.098Z,19.00
2018-05-29T07:45:03.094Z,19.00
2018-05-29T07:46:03.086Z,18.95
2018-05-29T07:47:03.075Z,19.07
2018-05-29T07:48:03.065Z,19.18
2018-05-29T07:49:03.061Z,19.23
2018-05-29T07:50:03.054Z,19.26
2018-05-29T07:51:03.044Z,19.31
2018-05-29T07:52:03.100Z,19.33
2018-05-29T07:53:03.025Z,19.43
2018-05-29T07:54:03.015Z,19.40
2018-05-29T07:55:03.013Z,19.39
2018-05-29T07:56:03.008Z,19.41
2018-05-29T07:57:02.997Z,19.47
2018-05-29T07:58:02.986Z,19.55
2018-05-29T07:59:02.983Z,19.59
2018-05-29T08:00:02.980Z,19.63
2018-05-29T08:01:02.964Z,19.61
2018-05-29T08:02:02.961Z,19.76
2018-05-29T08:03:02.951Z,19.78
2018-05-29T08:04:02.946Z,19.73
2018-05-29T08:05:02.936Z,19.87
2018-05-29T08:06:02.930Z,19.99
2018-05-29T08:07:02.925Z,20.13
2018-05-29T08:08:02.916Z,20.18
2018-05-29T08:09:02.927Z,20.39
2018-05-29T08:10:02.900Z,20.38
2018-05-29T08:11:02.898Z,20.50
2018-05-29T08:12:02.885Z,20.43
2018-05-29T08:13:02.879Z,20.54
2018-05-29T08:14:02.873Z,20.73
2018-05-29T08:15:02.863Z,20.84
2018-05-29T08:16:02.856Z,20.74
2018-05-29T08:17:02.849Z,20.82
2018-05-29T08:18:02.839Z,20.72
2018-05-29T08:19:02.836Z,20.70
2018-05-29T08:20:02.828Z,20.54
2018-05-29T08:21:02.825Z,20.54
2018-05-29T08:22:02.812Z,20.67
2018-05-29T08:23:02.808Z,20.72
2018-05-29T08:24:02.802Z,20.67
2018-05-29T08:25:02.792Z,20.54
2018-05-29T08:26:02.785Z,20.55
2018-05-29T08:27:02.779Z,20.38
2018-05-29T08:28:02.774Z,20.42
2018-05-29T08:29:02.768Z,20.43
2018-05-29T08:30:02.767Z,20.39
2018-05-29T08:31:02.790Z,20.41
2018-05-29T08:32:02.749Z,20.41
2018-05-29T08:33:02.744Z,20.57
2018-05-29T08:34:02.732Z,20.52
2018-05-29T08:35:02.728Z,20.73
2018-05-29T08:36:02.718Z,20.85
2018-05-29T08:37:02.708Z,20.80
2018-05-29T08:38:02.704Z,20.74
2018-05-29T08:39:02.697Z,20.74
2018-05-29T08:40:02.693Z,20.88
2018-05-29T08:41:02.681Z,20.84
2018-05-29T08:42:02.675Z,21.03
2018-05-29T08:43:02.668Z,21.13
2018-05-29T08:44:02.666Z,21.12
2018-05-29T08:45:02.659Z,20.98
2018-05-29T08:46:02.654Z,21.25
2018-05-29T08:47:02.642Z,21.42
2018-05-29T08:48:02.637Z,21.53
2018-05-29T08:49:02.630Z,21.58
2018-05-29T08:50:02.617Z,21.58
2018-05-29T08:51:02.613Z,21.42
2018-05-29T08:52:02.609Z,21.12
2018-05-29T08:53:02.603Z,21.14
2018-05-29T08:54:02.594Z,21.13
2018-05-29T08:55:02.596Z,21.07
2018-05-29T08:56:02.583Z,21.04
2018-05-29T08:57:02.574Z,21.06
2018-05-29T08:58:02.563Z,21.06
2018-05-29T08:59:02.558Z,21.06
2018-05-29T09:00:02.553Z,21.07
2018-05-29T09:01:02.544Z,21.07
2018-05-29T09:02:02.539Z,21.06
2018-05-29T09:03:02.539Z,21.22
2018-05-29T09:04:02.563Z,21.27
2018-05-29T09:05:02.526Z,21.54
2018-05-29T09:06:02.524Z,21.84
2018-05-29T09:07:02.512Z,22.00
2018-05-29T09:08:02.504Z,22.14
2018-05-29T09:09:02.493Z,22.31
2018-05-29T09:10:02.487Z,22.37
2018-05-29T09:11:02.481Z,22.51
2018-05-29T09:12:02.482Z,22.37
2018-05-29T09:13:02.467Z,22.58
2018-05-29T09:14:02.468Z,22.49
2018-05-29T09:15:02.459Z,22.61
2018-05-29T09:16:02.453Z,22.61
2018-05-29T09:17:02.445Z,22.46
2018-05-29T09:18:02.442Z,22.45
2018-05-29T09:19:02.482Z,22.37
2018-05-29T09:20:02.465Z,22.15
2018-05-29T09:21:02.420Z,22.12
2018-05-29T09:22:02.415Z,21.94
2018-05-29T09:23:02.411Z,21.86
2018-05-29T09:24:02.402Z,21.68
2018-05-29T09:25:02.398Z,21.56
2018-05-29T09:26:02.442Z,21.50
2018-05-29T09:27:02.385Z,21.38
2018-05-29T09:28:02.376Z,21.49
2018-05-29T09:29:02.369Z,21.69
2018-05-29T09:30:02.364Z,21.86
2018-05-29T09:31:02.359Z,21.67
2018-05-29T09:32:02.419Z,21.65
2018-05-29T09:33:02.349Z,21.64
2018-05-29T09:34:02.344Z,21.54
2018-05-29T09:35:02.337Z,21.43
2018-05-29T09:36:02.329Z,21.54
2018-05-29T09:37:02.324Z,21.40
2018-05-29T09:38:02.321Z,21.32
2018-05-29T09:39:02.312Z,21.37
2018-05-29T09:40:02.309Z,21.24
2018-05-29T09:41:02.298Z,21.16
2018-05-29T09:42:02.290Z,21.17
2018-05-29T09:43:02.283Z,21.09
2018-05-29T09:44:02.280Z,21.07
2018-05-29T09:45:02.267Z,21.04
2018-05-29T09:46:02.320Z,21.01
2018-05-29T09:47:02.261Z,21.07
2018-05-29T09:48:02.252Z,20.99
2018-05-29T09:49:02.250Z,21.04
2018-05-29T09:50:02.241Z,21.06
2018-05-29T09:51:02.253Z,21.01
2018-05-29T09:52:02.228Z,21.13
2018-05-29T09:53:02.225Z,21.19
2018-05-29T09:54:02.219Z,21.16
2018-05-29T09:55:02.208Z,21.21
2018-05-29T09:56:02.206Z,21.25
2018-05-29T09:57:02.201Z,21.28
2018-05-29T09:58:02.189Z,21.25
2018-05-29T09:59:02.180Z,21.31
2018-05-29T10:00:02.184Z,21.34
2018-05-29T10:01:02.169Z,21.38
2018-05-29T10:02:02.175Z,21.35
2018-05-29T10:03:02.157Z,21.40
2018-05-29T10:04:02.153Z,21.46
2018-05-29T10:05:02.158Z,21.54
2018-05-29T10:06:02.140Z,21.64
2018-05-29T10:07:02.183Z,21.74
2018-05-29T10:08:02.130Z,21.83
2018-05-29T10:09:02.120Z,21.69
2018-05-29T10:10:02.119Z,21.58
2018-05-29T10:11:02.114Z,21.53
2018-05-29T10:12:02.103Z,21.47
2018-05-29T10:13:02.090Z,21.43
2018-05-29T10:14:02.083Z,21.50
2018-05-29T10:15:02.084Z,21.37
2018-05-29T10:16:02.077Z,21.43
2018-05-29T10:17:02.095Z,21.40
2018-05-29T10:18:02.063Z,21.44
2018-05-29T10:19:02.058Z,21.47
2018-05-29T10:20:02.053Z,21.40
2018-05-29T10:21:02.046Z,21.44
2018-05-29T10:22:02.039Z,21.47
2018-05-29T10:23:02.034Z,21.38
2018-05-29T10:24:02.027Z,21.46
2018-05-29T10:25:02.023Z,21.49
2018-05-29T10:26:02.018Z,21.54
2018-05-29T10:27:02.004Z,21.54
2018-05-29T10:28:02.000Z,21.67
2018-05-29T10:29:01.994Z,21.52
2018-05-29T10:30:01.990Z,21.47
2018-05-29T10:31:01.984Z,21.42
2018-05-29T10:32:01.974Z,21.32
2018-05-29T10:33:01.970Z,21.38
2018-05-29T10:34:01.959Z,21.17
2018-05-29T10:35:01.961Z,21.07
2018-05-29T10:36:01.955Z,20.99
2018-05-29T10:37:01.945Z,20.99
2018-05-29T10:38:01.942Z,20.94
2018-05-29T10:39:01.938Z,20.97
2018-05-29T10:40:01.930Z,20.99
2018-05-29T10:41:01.922Z,20.97
2018-05-29T10:42:01.914Z,20.99
2018-05-29T10:43:01.905Z,20.98
2018-05-29T10:44:01.900Z,20.97
2018-05-29T10:45:01.893Z,21.01
2018-05-29T10:46:01.897Z,21.06
2018-05-29T10:47:01.888Z,21.07
2018-05-29T10:48:01.876Z,21.07
2018-05-29T10:49:01.872Z,21.04
2018-05-29T10:50:01.876Z,21.12
2018-05-29T10:51:01.859Z,21.06
2018-05-29T10:52:01.849Z,21.03
2018-05-29T10:53:01.839Z,21.07
2018-05-29T10:54:01.842Z,21.07
2018-05-29T10:55:01.828Z,20.99
2018-05-29T10:56:01.825Z,21.12
2018-05-29T10:57:01.813Z,21.10
2018-05-29T10:58:01.812Z,21.14
2018-05-29T10:59:01.808Z,21.27
2018-05-29T11:00:01.799Z,21.42
2018-05-29T11:01:01.795Z,21.71
2018-05-29T11:02:01.784Z,21.80
2018-05-29T11:03:01.777Z,21.83
2018-05-29T11:04:01.775Z,21.75
2018-05-29T11:05:01.766Z,21.62
2018-05-29T11:06:01.764Z,21.59
2018-05-29T11:07:01.752Z,21.62
2018-05-29T11:08:01.759Z,21.67
2018-05-29T11:09:01.736Z,21.64
2018-05-29T11:10:01.736Z,21.71
2018-05-29T11:11:01.732Z,21.67
2018-05-29T11:12:01.724Z,21.71
2018-05-29T11:13:01.710Z,21.74
2018-05-29T11:14:01.710Z,21.74
2018-05-29T11:15:01.702Z,21.68
2018-05-29T11:16:01.700Z,21.54
2018-05-29T11:17:01.691Z,21.50
2018-05-29T11:18:01.685Z,21.43
2018-05-29T11:19:01.683Z,21.38
2018-05-29T11:20:01.699Z,21.32
2018-05-29T11:21:01.663Z,21.31
2018-05-29T11:22:01.660Z,21.34
2018-05-29T11:23:01.649Z,21.38
2018-05-29T11:24:01.648Z,21.42
2018-05-29T11:25:01.643Z,21.42
2018-05-29T11:26:01.630Z,21.50
2018-05-29T11:27:01.631Z,21.52
2018-05-29T11:28:01.625Z,21.64
2018-05-29T11:29:01.615Z,21.58
2018-05-29T11:30:01.609Z,21.59
2018-05-29T11:31:01.599Z,21.42
2018-05-29T11:32:01.596Z,21.53
2018-05-29T11:33:01.589Z,21.50
2018-05-29T11:34:01.588Z,21.24
2018-05-29T11:35:01.574Z,21.19
2018-05-29T11:36:01.574Z,21.17
2018-05-29T11:37:01.564Z,21.16
2018-05-29T11:38:01.559Z,21.21
2018-05-29T11:39:01.552Z,21.21
2018-05-29T11:40:01.556Z,21.12
2018-05-29T11:41:01.543Z,21.14
2018-05-29T11:42:01.531Z,21.13
2018-05-29T11:43:01.528Z,21.14
2018-05-29T11:44:01.521Z,21.13
2018-05-29T11:45:01.512Z,21.28
2018-05-29T11:46:01.506Z,21.32
2018-05-29T11:47:01.504Z,21.53
2018-05-29T11:48:01.495Z,21.91
2018-05-29T11:49:01.490Z,22.05
2018-05-29T11:50:01.482Z,21.86
2018-05-29T11:51:01.472Z,21.86
2018-05-29T11:52:01.470Z,22.02
2018-05-29T11:53:01.462Z,21.96
2018-05-29T11:54:01.457Z,21.98
2018-05-29T11:55:01.459Z,21.84
2018-05-29T11:56:01.448Z,21.88
2018-05-29T11:57:01.434Z,22.02
2018-05-29T11:58:01.430Z,22.07
2018-05-29T11:59:01.426Z,22.09
2018-05-29T12:00:01.422Z,21.94
2018-05-29T12:01:01.415Z,22.03
2018-05-29T12:02:01.408Z,21.91
2018-05-29T12:03:01.405Z,21.88
2018-05-29T12:04:01.390Z,22.03
2018-05-29T12:05:01.390Z,22.31
2018-05-29T12:06:01.385Z,22.20
2018-05-29T12:07:01.377Z,22.20
2018-05-29T12:08:01.378Z,22.18
2018-05-29T12:09:01.364Z,22.21
2018-05-29T12:10:01.357Z,22.18
2018-05-29T12:11:01.348Z,22.18
2018-05-29T12:12:01.344Z,22.10
2018-05-29T12:13:01.339Z,22.21
2018-05-29T12:14:01.332Z,22.27
2018-05-29T12:15:01.333Z,22.35
2018-05-29T12:16:01.321Z,22.30
2018-05-29T12:17:01.315Z,22.22
2018-05-29T12:18:01.313Z,22.06
2018-05-29T12:19:01.301Z,22.02
2018-05-29T12:20:01.299Z,21.96
2018-05-29T12:21:01.290Z,22.03
2018-05-29T12:22:01.280Z,22.07
2018-05-29T12:23:01.276Z,22.00
2018-05-29T12:24:01.272Z,22.02
2018-05-29T12:25:01.265Z,22.03
2018-05-29T12:26:01.258Z,22.03
2018-05-29T12:27:01.257Z,22.09
2018-05-29T12:28:01.247Z,22.10
2018-05-29T12:29:01.243Z,22.14
2018-05-29T12:30:01.239Z,22.14
2018-05-29T12:31:01.227Z,22.15
2018-05-29T12:32:01.223Z,22.15
2018-05-29T12:33:01.223Z,22.15
2018-05-29T12:34:01.207Z,22.35
2018-05-29T12:35:01.208Z,22.33
2018-05-29T12:36:01.196Z,22.39
2018-05-29T12:37:01.190Z,22.54
2018-05-29T12:38:01.184Z,22.52
2018-05-29T12:39:01.180Z,22.47
2018-05-29T12:40:01.179Z,22.54
2018-05-29T12:41:01.174Z,22.45
2018-05-29T12:42:01.167Z,22.77
2018-05-29T12:43:01.155Z,22.88
2018-05-29T12:44:01.150Z,23.02
2018-05-29T12:45:01.147Z,23.02
2018-05-29T12:46:01.139Z,23.20
2018-05-29T12:47:01.134Z,23.13
2018-05-29T12:48:01.124Z,23.13
2018-05-29T12:49:01.123Z,22.90
2018-05-29T12:50:01.118Z,22.86
2018-05-29T12:51:01.109Z,22.86
2018-05-29T12:52:01.107Z,22.85